createdAt,value
2019-02-10T00:02:45.919Z,2.50
2019-02-10T00:05:14.609Z,2.17
2019-02-10T00:07:43.266Z,3.60
2019-02-10T00:10:11.980Z,1.93
2019-02-10T00:12:40.631Z,1.60
2019-02-10T00:15:09.290Z,2.90
2019-02-10T00:17:37.971Z,2.70
2019-02-10T00:20:06.721Z,3.40
2019-02-10T00:22:35.413Z,2.73
2019-02-10T00:27:58.791Z,2.60
2019-02-10T00:30:27.575Z,2.90
2019-02-10T00:32:56.221Z,2.77
2019-02-10T00:35:24.912Z,3.03
2019-02-10T00:37:53.551Z,2.23
2019-02-10T00:40:22.253Z,7.07
2019-02-10T00:42:50.897Z,1.70
2019-02-10T00:45:19.589Z,2.83
2019-02-10T00:47:48.288Z,2.03
2019-02-10T00:50:16.984Z,2.20
2019-02-10T00:52:45.687Z,2.00
2019-02-10T00:55:14.341Z,2.10
2019-02-10T00:57:43.016Z,2.57
2019-02-10T01:02:51.000Z,2.80
2019-02-10T01:05:19.741Z,3.63
2019-02-10T01:07:48.495Z,2.00
2019-02-10T01:13:25.386Z,2.13
2019-02-10T01:15:54.165Z,1.93
2019-02-10T01:18:22.813Z,1.90
2019-02-10T01:20:51.501Z,2.33
2019-02-10T01:23:20.154Z,2.20
2019-02-10T01:26:08.105Z,1.57
2019-02-10T01:28:36.793Z,4.23
2019-02-10T01:31:05.795Z,1.93
2019-02-10T01:33:34.483Z,1.97
2019-02-10T01:36:03.206Z,2.07
2019-02-10T01:38:31.914Z,1.80
2019-02-10T01:41:00.604Z,2.03
2019-02-10T01:43:29.304Z,1.70
2019-02-10T01:45:57.948Z,1.87
2019-02-10T01:48:27.479Z,2.07
2019-02-10T01:50:57.045Z,2.00
2019-02-10T01:53:25.676Z,1.83
2019-02-10T01:55:54.431Z,1.77
2019-02-10T01:58:23.077Z,1.90
2019-02-10T02:01:11.006Z,1.83
2019-02-10T02:03:39.652Z,1.60
2019-02-10T02:06:08.351Z,1.50
2019-02-10T02:08:37.073Z,1.90
2019-02-10T02:11:05.761Z,1.70
2019-02-10T02:13:34.423Z,1.60
2019-02-10T02:16:03.116Z,1.33
2019-02-10T02:18:31.849Z,1.93
2019-02-10T02:23:48.210Z,1.70
2019-02-10T02:26:36.101Z,1.30
2019-02-10T02:29:04.740Z,1.53
2019-02-10T02:31:33.435Z,1.70
2019-02-10T02:34:21.204Z,1.73
2019-02-10T02:36:49.898Z,1.90
2019-02-10T02:39:18.548Z,1.17
2019-02-10T02:41:47.237Z,1.80
2019-02-10T02:49:37.764Z,1.50
2019-02-10T02:52:06.395Z,1.40
2019-02-10T02:54:54.339Z,1.60
2019-02-10T02:57:42.250Z,1.27
2019-02-10T03:00:50.739Z,1.73
2019-02-10T03:03:19.510Z,1.30
2019-02-10T03:05:48.209Z,1.20
2019-02-10T03:08:16.893Z,1.50
2019-02-10T03:10:45.576Z,1.27
2019-02-10T03:13:14.211Z,2.07
2019-02-10T03:15:42.980Z,1.27
2019-02-10T03:18:11.625Z,1.50
2019-02-10T03:20:40.394Z,1.40
2019-02-10T03:23:09.085Z,1.30
2019-02-10T03:25:37.802Z,1.40
2019-02-10T03:28:06.488Z,1.10
2019-02-10T03:30:35.144Z,1.27
2019-02-10T03:33:03.855Z,1.50
2019-02-10T03:35:32.573Z,1.10
2019-02-10T03:38:01.278Z,1.37
2019-02-10T03:40:29.919Z,1.30
2019-02-10T03:42:58.759Z,1.03
2019-02-10T03:45:28.985Z,1.20
2019-02-10T03:47:57.743Z,1.73
2019-02-10T03:50:45.745Z,1.30
2019-02-10T03:53:14.432Z,1.43
2019-02-10T03:58:30.771Z,2.90
2019-02-10T04:00:59.432Z,1.60
2019-02-10T04:03:28.150Z,1.30
2019-02-10T04:05:56.835Z,1.40
2019-02-10T04:08:25.528Z,1.20
2019-02-10T04:10:54.178Z,2.00
2019-02-10T04:13:22.971Z,1.67
2019-02-10T04:15:51.625Z,1.20
2019-02-10T04:18:20.305Z,1.43
2019-02-10T04:20:49.023Z,1.37
2019-02-10T04:23:17.715Z,1.23
2019-02-10T04:26:05.657Z,1.20
2019-02-10T04:28:34.305Z,0.90
2019-02-10T04:31:02.987Z,1.40
2019-02-10T04:33:31.643Z,1.50
2019-02-10T04:36:00.364Z,1.27
2019-02-10T04:38:48.235Z,1.03
2019-02-10T04:41:36.089Z,1.20
2019-02-10T04:46:39.449Z,1.00
2019-02-10T04:49:08.140Z,1.10
2019-02-10T04:51:37.336Z,1.23
2019-02-10T04:54:05.991Z,1.20
2019-02-10T04:56:34.630Z,1.10
2019-02-10T04:59:03.455Z,1.43
2019-02-10T05:01:51.274Z,1.33
2019-02-10T05:04:20.045Z,1.27
2019-02-10T05:06:48.704Z,1.40
2019-02-10T05:09:36.507Z,1.10
2019-02-10T05:12:05.144Z,1.10
2019-02-10T05:14:33.841Z,1.00
2019-02-10T05:17:02.508Z,1.10
2019-02-10T05:19:31.169Z,1.10
2019-02-10T05:22:19.203Z,1.00
2019-02-10T05:24:47.858Z,1.40
2019-02-10T05:27:35.729Z,3.30
2019-02-10T05:30:44.212Z,0.90
2019-02-10T05:33:12.927Z,1.10
2019-02-10T05:35:41.670Z,1.30
2019-02-10T05:38:10.375Z,1.40
2019-02-10T05:40:39.087Z,1.80
2019-02-10T05:43:07.781Z,1.57
2019-02-10T05:45:36.490Z,1.00
2019-02-10T05:48:05.148Z,1.30
2019-02-10T05:50:33.813Z,1.00
2019-02-10T05:53:21.754Z,1.43
2019-02-10T05:56:09.584Z,1.40
2019-02-10T05:58:38.291Z,1.17
2019-02-10T06:01:45.470Z,1.23
2019-02-10T06:04:14.151Z,1.23
2019-02-10T06:07:01.992Z,1.10
2019-02-10T06:09:30.689Z,1.30
2019-02-10T06:11:59.407Z,1.40
2019-02-10T06:14:28.152Z,1.30
2019-02-10T06:16:56.790Z,1.20
2019-02-10T06:19:25.430Z,1.23
2019-02-10T06:21:54.129Z,1.40
2019-02-10T06:24:42.071Z,3.17
2019-02-10T06:27:30.034Z,2.30
2019-02-10T06:30:17.874Z,2.00
2019-02-10T06:32:46.558Z,2.83
2019-02-10T06:35:15.263Z,1.60
2019-02-10T06:38:03.143Z,1.53
2019-02-10T06:40:31.834Z,1.47
2019-02-10T06:43:00.581Z,1.53
2019-02-10T06:45:29.343Z,1.27
2019-02-10T06:47:58.062Z,1.80
2019-02-10T06:50:26.715Z,1.60
2019-02-10T06:55:43.057Z,1.23
2019-02-10T06:58:11.705Z,0.93
2019-02-10T07:00:59.546Z,1.20
2019-02-10T07:04:08.006Z,1.37
2019-02-10T07:06:36.761Z,1.57
2019-02-10T07:09:45.236Z,1.23
2019-02-10T07:12:52.344Z,1.67
2019-02-10T07:15:59.488Z,1.47
2019-02-10T07:19:06.644Z,1.83
2019-02-10T07:22:15.106Z,1.40
2019-02-10T07:25:23.574Z,1.20
2019-02-10T07:28:32.041Z,1.10
2019-02-10T07:31:20.055Z,1.10
2019-02-10T07:34:28.538Z,0.70
2019-02-10T07:37:36.948Z,1.07
2019-02-10T07:40:45.430Z,0.90
2019-02-10T07:43:53.857Z,0.90
2019-02-10T07:47:02.378Z,0.90
2019-02-10T07:50:10.848Z,0.90
2019-02-10T07:53:19.368Z,1.00
2019-02-10T07:56:28.856Z,1.00
2019-02-10T07:59:37.995Z,0.73
2019-02-10T08:02:45.218Z,1.00
2019-02-10T08:05:53.669Z,1.00
2019-02-10T08:09:02.136Z,0.97
2019-02-10T08:12:10.838Z,0.90
2019-02-10T08:15:19.386Z,0.80
2019-02-10T08:18:26.563Z,0.50
2019-02-10T08:21:16.051Z,0.97
2019-02-10T08:24:25.004Z,0.83
2019-02-10T08:27:15.582Z,1.07
2019-02-10T08:30:24.751Z,0.80
2019-02-10T08:33:34.504Z,0.90
2019-02-10T08:36:41.678Z,1.00
2019-02-10T08:39:48.923Z,0.80
2019-02-10T08:42:57.423Z,2.33
2019-02-10T08:46:06.013Z,1.47
2019-02-10T08:49:13.320Z,1.37
2019-02-10T08:52:22.212Z,1.23
2019-02-10T08:54:50.897Z,1.27
2019-02-10T08:57:19.610Z,1.20
2019-02-10T08:59:48.599Z,1.37
2019-02-10T09:02:17.240Z,1.00
2019-02-10T09:04:45.976Z,1.10
2019-02-10T09:07:15.461Z,0.80
2019-02-10T09:10:04.199Z,0.83
2019-02-10T09:12:32.944Z,1.17
2019-02-10T09:15:01.620Z,0.90
2019-02-10T09:17:30.287Z,1.20
2019-02-10T09:19:59.231Z,0.90
2019-02-10T09:22:28.381Z,0.97
2019-02-10T09:28:06.579Z,0.73
2019-02-10T09:33:25.343Z,1.00
2019-02-10T09:35:54.479Z,0.90
2019-02-10T09:38:23.871Z,0.90
2019-02-10T09:40:52.694Z,0.93
2019-02-10T09:43:21.393Z,1.00
2019-02-10T09:45:50.285Z,1.00
2019-02-10T09:48:19.007Z,0.80
2019-02-10T09:54:00.537Z,1.43
2019-02-10T09:56:48.504Z,0.80
2019-02-10T09:59:17.167Z,1.03
2019-02-10T10:01:45.814Z,0.77
2019-02-10T10:04:15.125Z,0.90
2019-02-10T10:07:23.863Z,0.70
2019-02-10T10:13:08.499Z,0.87
2019-02-10T10:15:37.215Z,0.70
2019-02-10T10:18:05.995Z,0.87
2019-02-10T10:20:34.641Z,1.10
2019-02-10T10:23:03.504Z,0.87
2019-02-10T10:25:32.163Z,0.93
2019-02-10T10:28:01.506Z,1.13
2019-02-10T10:30:30.852Z,1.33
2019-02-10T10:35:35.387Z,0.60
2019-02-10T10:38:23.180Z,1.10
2019-02-10T10:40:53.624Z,1.30
2019-02-10T10:43:22.998Z,1.00
2019-02-10T10:45:51.764Z,0.97
2019-02-10T10:48:20.583Z,0.80
2019-02-10T10:50:49.453Z,0.97
2019-02-10T10:53:18.219Z,1.20
2019-02-10T10:55:46.889Z,1.03
2019-02-10T10:58:15.773Z,1.50
2019-02-10T11:00:45.490Z,1.20
2019-02-10T11:03:14.183Z,0.80
2019-02-10T11:08:36.342Z,0.90
2019-02-10T11:11:05.106Z,0.80
2019-02-10T11:13:33.765Z,1.23
2019-02-10T11:18:50.932Z,0.80
2019-02-10T11:21:39.364Z,1.20
2019-02-10T11:24:08.061Z,1.47
2019-02-10T11:26:56.394Z,1.13
2019-02-10T11:29:25.435Z,0.80
2019-02-10T11:31:54.701Z,1.30
2019-02-10T11:35:03.287Z,1.03
2019-02-10T11:37:31.975Z,1.30
2019-02-10T11:40:01.505Z,1.03
2019-02-10T11:42:30.966Z,1.33
2019-02-10T11:44:59.641Z,1.20
2019-02-10T11:47:28.539Z,1.63
2019-02-10T11:49:58.225Z,1.30
2019-02-10T11:52:27.502Z,1.10
2019-02-10T11:54:56.195Z,1.70
2019-02-10T11:57:25.586Z,1.20
2019-02-10T11:59:54.808Z,1.00
2019-02-10T12:02:43.302Z,0.93
2019-02-10T12:05:33.018Z,1.17
2019-02-10T12:08:41.773Z,0.97
2019-02-10T12:11:10.479Z,1.10
2019-02-10T12:13:40.399Z,1.40
2019-02-10T12:16:09.545Z,1.10
2019-02-10T12:18:38.203Z,1.20
2019-02-10T12:21:06.917Z,1.00
2019-02-10T12:23:35.588Z,1.20
2019-02-10T12:26:23.580Z,0.87
2019-02-10T12:28:52.265Z,1.17
2019-02-10T12:31:21.027Z,1.13
2019-02-10T12:33:49.734Z,1.17
2019-02-10T12:36:37.682Z,1.23
2019-02-10T12:39:46.123Z,1.50
2019-02-10T12:42:14.890Z,1.10
2019-02-10T12:44:43.932Z,1.70
2019-02-10T12:47:12.998Z,1.10
2019-02-10T12:49:41.664Z,1.03
2019-02-10T12:52:10.426Z,0.87
2019-02-10T12:54:58.358Z,0.83
2019-02-10T12:57:27.041Z,1.07
2019-02-10T12:59:55.693Z,1.50
2019-02-10T13:02:24.410Z,1.17
2019-02-10T13:04:53.167Z,1.07
2019-02-10T13:07:21.860Z,0.90
2019-02-10T13:09:50.656Z,1.20
2019-02-10T13:12:19.469Z,1.10
2019-02-10T13:14:48.198Z,1.70
2019-02-10T13:20:29.324Z,1.00
2019-02-10T13:22:58.114Z,1.17
2019-02-10T13:25:46.036Z,0.97
2019-02-10T13:28:14.772Z,1.00
2019-02-10T13:30:43.480Z,1.20
2019-02-10T13:33:12.142Z,0.87
2019-02-10T13:35:40.920Z,1.00
2019-02-10T13:38:09.565Z,1.00
2019-02-10T13:40:38.270Z,1.30
2019-02-10T13:43:06.969Z,0.90
2019-02-10T13:45:35.796Z,0.97
2019-02-10T13:48:04.498Z,0.87
2019-02-10T13:50:33.485Z,1.10
2019-02-10T13:53:02.190Z,1.00
2019-02-10T13:55:30.947Z,1.07
2019-02-10T13:57:59.619Z,0.90
2019-02-10T14:00:28.390Z,1.07
2019-02-10T14:02:57.080Z,0.90
2019-02-10T14:05:25.792Z,1.00
2019-02-10T14:07:54.688Z,1.17
2019-02-10T14:10:25.651Z,1.20
2019-02-10T14:15:43.011Z,1.13
2019-02-10T14:18:11.666Z,0.90
2019-02-10T14:20:40.423Z,0.93
2019-02-10T14:23:09.133Z,0.63
2019-02-10T14:25:38.290Z,1.07
2019-02-10T14:28:07.070Z,0.93
2019-02-10T14:30:35.729Z,1.20
2019-02-10T14:33:04.461Z,1.20
2019-02-10T14:35:33.098Z,1.07
2019-02-10T14:38:01.895Z,1.10
2019-02-10T14:40:33.830Z,1.13
2019-02-10T14:43:00.948Z,0.90
2019-02-10T14:45:29.692Z,0.70
2019-02-10T14:47:58.391Z,0.87
2019-02-10T14:50:28.999Z,0.90
2019-02-10T14:52:58.101Z,0.60
2019-02-10T14:55:26.775Z,0.97
2019-02-10T14:57:55.540Z,0.60
2019-02-10T15:00:24.300Z,0.60
2019-02-10T15:02:52.998Z,0.70
2019-02-10T15:05:22.294Z,0.77
2019-02-10T15:07:50.938Z,0.70
2019-02-10T15:10:59.404Z,0.70
2019-02-10T15:13:47.319Z,0.70
2019-02-10T15:16:16.012Z,0.90
2019-02-10T15:18:44.832Z,0.63
2019-02-10T15:21:13.639Z,0.70
2019-02-10T15:23:42.386Z,0.60
2019-02-10T15:26:11.167Z,0.97
2019-02-10T15:28:39.829Z,0.80
2019-02-10T15:31:08.532Z,0.50
2019-02-10T15:33:37.397Z,0.50
2019-02-10T15:36:06.177Z,0.47
2019-02-10T15:38:34.844Z,0.80
2019-02-10T15:41:03.515Z,0.80
2019-02-10T15:43:32.211Z,0.53
2019-02-10T15:46:00.913Z,1.00
2019-02-10T15:48:29.561Z,0.80
2019-02-10T15:50:58.256Z,0.57
2019-02-10T15:53:26.942Z,0.60
2019-02-10T15:55:55.772Z,1.00
2019-02-10T15:58:43.817Z,0.80
2019-02-10T16:01:12.472Z,0.70
2019-02-10T16:03:41.129Z,1.00
2019-02-10T16:06:09.833Z,1.40
2019-02-10T16:08:38.501Z,0.80
2019-02-10T16:11:07.157Z,1.07
2019-02-10T16:13:35.852Z,1.00
2019-02-10T16:16:04.497Z,0.90
2019-02-10T16:18:33.214Z,1.00
2019-02-10T16:21:01.866Z,0.90
2019-02-10T16:23:49.664Z,1.00
2019-02-10T16:26:18.316Z,0.90
2019-02-10T16:28:47.151Z,0.70
2019-02-10T16:31:35.054Z,0.73
2019-02-10T16:34:03.739Z,0.93
2019-02-10T16:36:32.424Z,0.77
2019-02-10T16:41:50.326Z,1.20
2019-02-10T16:44:18.970Z,0.93
2019-02-10T16:46:49.542Z,0.87
2019-02-10T16:49:18.255Z,0.80
2019-02-10T16:52:06.172Z,0.63
2019-02-10T16:54:34.867Z,0.63
2019-02-10T16:57:03.501Z,1.37
2019-02-10T17:02:20.800Z,0.93
2019-02-10T17:04:49.449Z,1.03
2019-02-10T17:07:18.111Z,0.80
2019-02-10T17:12:41.812Z,0.93
2019-02-10T17:15:50.300Z,1.40
2019-02-10T17:18:19.000Z,2.03
2019-02-10T17:20:47.657Z,1.17
2019-02-10T17:23:16.348Z,2.00
2019-02-10T17:26:04.323Z,0.90
2019-02-10T17:28:33.013Z,0.80
2019-02-10T17:31:20.912Z,1.50
2019-02-10T17:33:49.624Z,2.70
2019-02-10T17:36:18.282Z,1.53
2019-02-10T17:38:47.001Z,1.57
2019-02-10T17:41:55.441Z,1.13
2019-02-10T17:44:24.143Z,1.00
2019-02-10T17:46:52.810Z,0.97
2019-02-10T17:49:21.496Z,0.70
2019-02-10T17:51:50.337Z,0.73
2019-02-10T17:54:19.058Z,0.60
2019-02-10T17:56:47.774Z,0.70
2019-02-10T17:59:16.414Z,0.70
2019-02-10T18:02:04.264Z,0.80
2019-02-10T18:04:37.574Z,0.70
2019-02-10T18:10:02.309Z,0.53
2019-02-10T18:12:31.036Z,0.60
2019-02-10T18:15:38.460Z,0.50
2019-02-10T18:18:45.553Z,0.60
2019-02-10T18:21:33.368Z,0.60
2019-02-10T18:27:10.429Z,0.50
2019-02-10T18:33:06.629Z,0.50
2019-02-10T18:35:54.857Z,0.50
2019-02-10T18:39:02.159Z,0.70
2019-02-10T18:41:49.993Z,0.60
2019-02-10T18:47:13.308Z,0.50
2019-02-10T18:50:20.505Z,0.70
2019-02-10T18:53:08.545Z,0.77
2019-02-10T19:01:11.783Z,0.63
2019-02-10T19:10:11.889Z,0.70
2019-02-10T19:13:19.039Z,0.60
2019-02-10T19:16:25.991Z,0.80
2019-02-10T19:22:39.978Z,0.60
2019-02-10T19:25:27.762Z,0.70
2019-02-10T19:28:34.852Z,0.50
2019-02-10T19:31:22.674Z,0.70
2019-02-10T19:34:10.960Z,0.80
2019-02-10T19:36:58.809Z,1.17
2019-02-10T19:39:46.570Z,0.80
2019-02-10T19:42:34.495Z,0.87
2019-02-10T19:48:03.347Z,0.60
2019-02-10T19:50:51.129Z,0.70
2019-02-10T19:53:38.949Z,0.57
2019-02-10T19:59:21.472Z,0.70
2019-02-10T20:04:58.509Z,1.13
2019-02-10T20:10:35.534Z,0.73
2019-02-10T20:13:23.395Z,0.97
2019-02-10T20:16:11.176Z,0.80
2019-02-10T20:19:18.181Z,0.90
2019-02-10T20:22:05.969Z,1.27
2019-02-10T20:24:53.794Z,0.90
2019-02-10T20:27:41.802Z,0.80
2019-02-10T20:30:50.354Z,0.73
2019-02-10T20:36:27.376Z,0.60
2019-02-10T20:39:34.596Z,0.87
2019-02-10T20:42:22.385Z,0.70
2019-02-10T20:45:10.184Z,1.00
2019-02-10T20:47:58.015Z,1.10
2019-02-10T20:50:45.899Z,1.33
2019-02-10T20:53:33.736Z,1.07
2019-02-10T20:56:21.583Z,1.13
2019-02-10T21:01:58.605Z,0.80
2019-02-10T21:04:48.526Z,0.80
2019-02-10T21:12:51.635Z,0.60
2019-02-10T21:15:39.478Z,0.80
2019-02-10T21:21:06.613Z,0.77
2019-02-10T21:23:54.432Z,0.73
2019-02-10T21:32:12.280Z,1.00
2019-02-10T21:35:00.255Z,0.83
2019-02-10T21:38:07.315Z,0.67
2019-02-10T21:43:30.392Z,0.70
2019-02-10T21:51:43.061Z,0.70
2019-02-10T21:54:31.031Z,0.60
2019-02-10T21:57:18.936Z,0.50
2019-02-10T21:59:47.862Z,0.57
2019-02-10T22:02:35.718Z,0.70
2019-02-10T22:05:44.211Z,0.80
2019-02-10T22:08:32.044Z,0.60
2019-02-10T22:11:00.734Z,0.50
2019-02-10T22:13:48.524Z,0.53
2019-02-10T22:16:17.357Z,0.53
2019-02-10T22:19:05.262Z,0.50
2019-02-10T22:21:33.975Z,0.60
2019-02-10T22:24:02.636Z,0.93
2019-02-10T22:26:31.298Z,0.50
2019-02-10T22:28:59.987Z,0.40
2019-02-10T22:34:22.071Z,0.53
2019-02-10T22:37:09.962Z,0.63
2019-02-10T22:39:57.869Z,0.67
2019-02-10T22:42:26.562Z,0.67
2019-02-10T22:45:14.495Z,0.40
2019-02-10T22:47:43.479Z,0.50
2019-02-10T22:50:51.952Z,0.60
2019-02-10T22:53:20.590Z,0.63
2019-02-10T22:55:49.302Z,0.40
2019-02-10T22:58:37.074Z,0.50
2019-02-10T23:01:45.543Z,0.70
2019-02-10T23:04:14.213Z,1.47
2019-02-10T23:06:42.984Z,0.77
2019-02-10T23:11:51.394Z,0.50
2019-02-10T23:14:20.058Z,0.50
2019-02-10T23:16:48.788Z,0.60
2019-02-10T23:19:17.506Z,0.60
2019-02-10T23:21:46.284Z,0.60
2019-02-10T23:24:14.934Z,0.70
2019-02-10T23:26:43.621Z,0.60
2019-02-10T23:29:31.894Z,1.00
2019-02-10T23:32:00.887Z,0.40
2019-02-10T23:34:29.569Z,0.67
2019-02-10T23:36:58.211Z,0.90
2019-02-10T23:39:26.916Z,0.77
2019-02-10T23:41:55.555Z,0.67
2019-02-10T23:44:24.253Z,1.17
2019-02-10T23:46:52.914Z,0.80
2019-02-10T23:49:21.605Z,0.70
2019-02-10T23:51:50.378Z,0.80
2019-02-10T23:54:19.096Z,0.80
2019-02-10T23:56:47.759Z,0.70
2019-02-10T23:59:16.448Z,0.70
